Cobre, Nevada
Current Conditions -  °F | °C
As of 4:15 PM on Monday 24 Nov 2014 (Local Time) from KENV Reporting Station
Clear Clear  
Wind Chill: 38°   Ceiling: Unl
Heat Index: 43°   Visibility: 10mi
Dew Point: 19°   Wind: 8mph
Humidity: 39%   Direction: 290°WNW
Pressure: 30.4"   Gusts: NA
Location:  41.0114°N, 114.57°W
Report Text: KENV 250015Z AUTO 29007KT 10SM CLR 06/M07 A3040 RMK AO1
Loading
Personal Weather Stations






























Interactive Weather Map New forecast layout! Learn more

10-Day Weather Forecast

Advertisements
Track Severe Weather on mobile